Time;durP1;ratioP1;P1;durP2;ratioP2;P2;SDS_P1;SDS_P2;PMS_P1;PMS_P2;Temp;Humidity;BMP_temperature;BMP_pressure;BME280_temperature;BME280_humidity;BME280_pressure;Samples;Min_cycle;Max_cycle;Signal;HPM_P1;HPM_P2
2022/03/12 00:00:54;;;;;;;4.63;1.70;;;;;;;2.57;52.46;96460.53;5060833;28;20214;-71
2022/03/12 00:03:20;;;;;;;3.57;2.37;;;;;;;2.51;53.21;96471.44;5060347;28;20224;-70
2022/03/12 00:05:52;;;;;;;4.67;2.40;;;;;;;2.47;53.14;96472.63;5060912;28;20211;-70
2022/03/12 00:08:21;;;;;;;2.63;1.53;;;;;;;2.48;52.35;96476.88;5060070;28;20223;-70
2022/03/12 00:10:49;;;;;;;5.17;2.43;;;;;;;2.46;52.49;96478.78;5061160;28;20296;-70
2022/03/12 00:13:15;;;;;;;1.53;1.07;;;;;;;2.53;52.54;96482.56;5060409;28;20235;-70
2022/03/12 00:15:43;;;;;;;2.90;1.60;;;;;;;2.54;53.76;96484.19;5060463;28;20648;-70
2022/03/12 00:18:10;;;;;;;2.90;1.50;;;;;;;2.30;54.63;96487.09;5060626;28;20235;-70
2022/03/12 00:20:37;;;;;;;3.10;1.17;;;;;;;2.09;55.42;96475.78;5060154;28;20209;-70
2022/03/12 00:23:05;;;;;;;2.83;1.67;;;;;;;2.13;55.40;96488.41;5059654;28;20217;-71
2022/03/12 00:25:32;;;;;;;1.40;1.30;;;;;;;1.79;56.05;96488.56;5060603;28;20299;-71
2022/03/12 00:27:59;;;;;;;3.73;2.53;;;;;;;2.01;55.69;96486.78;5060094;28;20319;-71
2022/03/12 00:30:26;;;;;;;3.10;1.90;;;;;;;1.96;55.23;96482.88;5060997;28;20212;-71
2022/03/12 00:32:55;;;;;;;2.13;1.73;;;;;;;2.08;55.60;96476.75;5060898;28;20321;-71
2022/03/12 00:35:21;;;;;;;2.50;1.03;;;;;;;1.91;55.08;96479.84;5061140;28;20211;-71
2022/03/12 00:37:48;;;;;;;2.50;2.10;;;;;;;2.02;55.04;96492.81;5062191;28;20189;-71
2022/03/12 00:40:16;;;;;;;2.60;1.60;;;;;;;1.96;56.27;96488.06;5060380;28;20216;-71
2022/03/12 00:42:42;;;;;;;2.60;1.93;;;;;;;2.04;54.73;96493.53;5061057;28;20269;-71
2022/03/12 00:45:10;;;;;;;5.27;2.73;;;;;;;2.09;54.82;96499.19;5061401;28;20234;-71
2022/03/12 00:47:36;;;;;;;3.27;1.97;;;;;;;2.07;54.13;96501.88;5060882;28;20213;-71
2022/03/12 00:50:06;;;;;;;2.70;2.23;;;;;;;2.32;53.26;96495.59;5061542;28;20575;-71
2022/03/12 00:52:32;;;;;;;3.57;2.10;;;;;;;2.13;53.91;96495.41;5059317;28;20235;-71
2022/03/12 00:54:59;;;;;;;3.97;2.00;;;;;;;2.27;52.83;96495.16;5061542;28;20203;-71
2022/03/12 00:57:25;;;;;;;4.20;1.50;;;;;;;2.06;54.97;96489.00;5061483;28;20204;-71
2022/03/12 00:59:52;;;;;;;2.60;1.90;;;;;;;2.04;55.25;96486.53;5060514;28;20213;-71
2022/03/12 01:02:19;;;;;;;3.00;1.67;;;;;;;2.26;54.44;96485.69;5060513;28;20708;-71
2022/03/12 01:04:46;;;;;;;4.07;2.07;;;;;;;1.87;55.72;96496.56;5060671;28;20205;-71
2022/03/12 01:07:14;;;;;;;0.87;0.73;;;;;;;2.04;55.69;96498.72;5061029;28;20211;-71
2022/03/12 01:09:40;;;;;;;2.03;1.50;;;;;;;1.98;57.06;96496.59;5061647;28;20202;-71
2022/03/12 01:12:08;;;;;;;3.27;1.77;;;;;;;2.10;56.48;96498.22;5060553;28;20204;-71
2022/03/12 01:14:38;;;;;;;2.67;2.10;;;;;;;1.81;56.63;96500.47;5061573;28;20228;-71
2022/03/12 01:17:07;;;;;;;3.80;2.60;;;;;;;1.97;55.62;96498.38;5061407;28;20209;-71
2022/03/12 01:19:34;;;;;;;3.87;2.07;;;;;;;2.04;55.10;96503.91;5061222;28;20244;-71
2022/03/12 01:22:01;;;;;;;0.97;0.97;;;;;;;2.03;55.06;96497.88;5061394;28;20213;-71
2022/03/12 01:24:29;;;;;;;2.83;1.50;;;;;;;2.20;54.44;96504.34;5061503;28;20230;-71
2022/03/12 01:26:56;;;;;;;1.60;1.50;;;;;;;1.99;54.46;96504.25;5061279;28;20296;-71
2022/03/12 01:29:23;;;;;;;7.77;3.07;;;;;;;1.95;54.78;96508.03;5061065;28;20216;-71
2022/03/12 01:31:50;;;;;;;4.33;1.57;;;;;;;2.13;54.92;96495.41;5061116;28;20200;-71
2022/03/12 01:34:17;;;;;;;6.90;2.30;;;;;;;1.97;55.13;96500.13;5059585;28;20307;-71
2022/03/12 01:36:43;;;;;;;2.27;1.47;;;;;;;1.91;56.19;96498.03;5061092;28;20211;-71
2022/03/12 01:39:10;;;;;;;1.97;1.30;;;;;;;1.94;55.37;96495.16;5060274;28;20213;-71
2022/03/12 01:41:41;;;;;;;5.10;2.00;;;;;;;2.09;55.76;96497.41;5060026;28;20207;-71
2022/03/12 01:44:08;;;;;;;8.20;2.50;;;;;;;1.92;56.22;96499.66;5059416;28;20220;-71
2022/03/12 01:46:40;;;;;;;3.47;1.40;;;;;;;1.89;57.47;96498.13;5059979;28;20208;-71
2022/03/12 01:49:09;;;;;;;3.77;2.23;;;;;;;1.90;56.13;96491.16;5060103;28;20200;-71
2022/03/12 01:51:37;;;;;;;3.87;1.83;;;;;;;1.88;56.73;96486.09;5057265;28;20204;-71
2022/03/12 01:54:05;;;;;;;6.70;2.47;;;;;;;1.87;56.58;96489.63;5059070;28;20238;-71
2022/03/12 01:56:34;;;;;;;2.57;1.57;;;;;;;1.73;56.74;96490.81;5059527;28;20204;-71
2022/03/12 01:59:02;;;;;;;5.00;1.80;;;;;;;1.76;58.92;96491.41;5060772;28;20202;-71
2022/03/12 02:01:29;;;;;;;2.17;1.83;;;;;;;1.77;57.47;96487.88;5061480;28;20236;-71
2022/03/12 02:03:57;;;;;;;4.10;2.00;;;;;;;1.67;57.72;96489.50;5057407;28;20212;-71
2022/03/12 02:06:24;;;;;;;5.80;1.40;;;;;;;1.56;56.62;96488.69;5058973;28;20232;-71
2022/03/12 02:08:57;;;;;;;0.93;0.90;;;;;;;1.75;56.28;96489.75;5059731;28;20207;-71
2022/03/12 02:11:27;;;;;;;11.47;2.03;;;;;;;1.68;55.57;96498.97;5059485;28;20240;-71
2022/03/12 02:13:58;;;;;;;1.67;1.33;;;;;;;1.97;55.70;96490.56;5058374;28;20232;-71
2022/03/12 02:16:27;;;;;;;5.63;2.60;;;;;;;2.07;55.49;96496.69;5059287;28;20306;-71
2022/03/12 02:18:53;;;;;;;4.67;2.30;;;;;;;1.96;55.58;96498.47;5059644;28;20210;-71
2022/03/12 02:21:34;;;;;;;3.30;2.20;;;;;;;2.14;55.34;96497.03;5059679;28;20877;-71
2022/03/12 02:24:03;;;;;;;1.87;1.40;;;;;;;1.97;56.30;96497.53;5058898;28;20221;-71
2022/03/12 02:26:29;;;;;;;2.73;1.47;;;;;;;1.80;56.96;96494.59;5060051;28;20215;-71
2022/03/12 02:28:57;;;;;;;6.00;2.87;;;;;;;1.73;56.66;96489.00;5059735;28;20652;-71
2022/03/12 02:31:26;;;;;;;2.80;1.30;;;;;;;1.87;56.33;96500.03;5058481;28;20204;-71
2022/03/12 02:33:53;;;;;;;6.83;2.07;;;;;;;1.91;55.01;96505.81;5057599;28;20224;-71
2022/03/12 02:36:26;;;;;;;8.53;1.70;;;;;;;2.04;54.72;96498.72;5058644;28;20205;-71
2022/03/12 02:38:53;;;;;;;2.53;1.27;;;;;;;1.94;55.91;96495.16;5058270;28;20726;-71
2022/03/12 02:41:24;;;;;;;1.17;1.10;;;;;;;2.16;54.95;96495.16;5061833;28;20201;-71
2022/03/12 02:43:51;;;;;;;3.33;2.00;;;;;;;1.94;55.71;96484.78;5061860;28;20217;-71
2022/03/12 02:46:18;;;;;;;1.20;1.17;;;;;;;1.82;56.53;96483.16;5061835;28;20740;-71
2022/03/12 02:48:51;;;;;;;3.67;1.53;;;;;;;2.03;56.93;96482.28;5061911;28;20227;-71
2022/03/12 02:51:20;;;;;;;2.57;1.40;;;;;;;1.93;56.11;96485.72;5059792;28;20205;-72
2022/03/12 02:53:49;;;;;;;6.83;2.43;;;;;;;1.87;54.68;96483.59;5061025;28;20234;-71
2022/03/12 02:56:16;;;;;;;2.97;1.43;;;;;;;1.82;57.52;96480.53;5062599;28;20662;-71
2022/03/12 02:58:44;;;;;;;1.37;1.17;;;;;;;1.90;56.28;96491.16;5062121;28;21211;-71
2022/03/12 03:01:14;;;;;;;6.20;2.90;;;;;;;1.82;55.75;96493.53;5062392;28;20235;-71
2022/03/12 03:03:41;;;;;;;1.47;1.37;;;;;;;1.73;56.47;96494.22;5062525;28;20208;-71
2022/03/12 03:06:08;;;;;;;4.13;1.53;;;;;;;1.88;56.39;96491.28;5062472;28;20204;-71
2022/03/12 03:08:39;;;;;;;5.07;1.73;;;;;;;1.87;56.90;96493.97;5062902;28;20201;-71
2022/03/12 03:11:12;;;;;;;0.83;0.77;;;;;;;2.15;56.06;96496.94;5062780;28;20211;-71
2022/03/12 03:13:44;;;;;;;2.53;0.97;;;;;;;2.15;55.44;96503.88;5061927;28;20233;-71
2022/03/12 03:16:18;;;;;;;7.90;1.93;;;;;;;2.08;54.45;96500.94;5063022;28;20230;-71
2022/03/12 03:18:51;;;;;;;3.87;1.43;;;;;;;2.12;54.57;96509.34;5057713;28;20797;-71
2022/03/12 03:21:18;;;;;;;3.90;1.23;;;;;;;2.10;55.38;96503.41;5058828;28;20244;-71
2022/03/12 03:23:45;;;;;;;1.83;1.00;;;;;;;1.98;56.65;96509.56;5057542;28;20262;-71
2022/03/12 03:26:13;;;;;;;1.43;1.33;;;;;;;1.98;56.98;96501.78;5058755;28;20291;-71
2022/03/12 03:28:40;;;;;;;1.83;1.33;;;;;;;2.04;55.31;96503.91;5059236;28;20207;-71
2022/03/12 03:31:08;;;;;;;5.53;2.03;;;;;;;2.07;55.92;96495.88;5058005;28;20219;-71
2022/03/12 03:33:36;;;;;;;1.30;1.20;;;;;;;1.99;58.30;96496.47;5057236;28;20255;-71
2022/03/12 03:36:03;;;;;;;2.43;1.47;;;;;;;1.68;57.11;96505.91;5058502;28;20200;-71
2022/03/12 03:38:30;;;;;;;1.47;1.27;;;;;;;1.81;56.36;96513.47;5059287;28;20216;-71
2022/03/12 03:40:56;;;;;;;2.00;1.33;;;;;;;1.80;56.58;96511.00;5058071;28;20203;-71
2022/03/12 03:43:25;;;;;;;3.80;1.87;;;;;;;1.87;58.22;96514.75;5057337;28;20223;-71
2022/03/12 03:45:54;;;;;;;3.23;2.13;;;;;;;1.87;59.49;96519.97;5059170;28;20200;-71
2022/03/12 03:48:22;;;;;;;1.53;1.20;;;;;;;1.87;58.28;96519.97;5058706;28;20212;-71
2022/03/12 03:50:52;;;;;;;4.80;2.80;;;;;;;2.02;56.95;96523.97;5056796;28;20209;-71
2022/03/12 03:53:21;;;;;;;2.97;2.37;;;;;;;1.76;58.75;96513.94;5057588;28;20229;-71
2022/03/12 03:55:48;;;;;;;2.67;1.70;;;;;;;1.76;59.47;96519.97;5057740;28;20579;-71
2022/03/12 03:58:15;;;;;;;3.87;1.93;;;;;;;1.73;57.89;96517.59;5058164;28;20208;-71
2022/03/12 04:00:53;;;;;;;9.37;2.17;;;;;;;1.95;56.47;96525.41;5058181;28;20596;-71
2022/03/12 04:03:19;;;;;;;2.23;1.33;;;;;;;1.55;56.55;96536.34;5057170;28;20235;-71
2022/03/12 04:05:46;;;;;;;2.07;1.40;;;;;;;1.60;56.75;96534.22;5057993;28;20243;-71
2022/03/12 04:08:14;;;;;;;3.83;1.70;;;;;;;1.84;58.84;96528.00;5058410;28;20204;-71
2022/03/12 04:10:40;;;;;;;1.83;1.67;;;;;;;1.72;57.96;96533.28;5057873;28;20230;-71
2022/03/12 04:13:12;;;;;;;5.73;1.67;;;;;;;1.87;57.88;96527.75;5056748;28;20233;-72
2022/03/12 04:15:39;;;;;;;2.20;1.33;;;;;;;1.70;58.55;96532.59;5057831;28;20197;-71
2022/03/12 04:18:08;;;;;;;2.27;1.77;;;;;;;1.63;58.22;96532.25;5057806;28;20681;-71
2022/03/12 04:20:35;;;;;;;7.83;2.60;;;;;;;1.79;57.02;96540.50;5057691;28;20209;-71
2022/03/12 04:23:02;;;;;;;2.03;1.40;;;;;;;1.91;56.78;96532.59;5056988;28;20221;-71
2022/03/12 04:25:31;;;;;;;1.83;1.30;;;;;;;2.07;56.99;96529.66;5057350;28;20209;-71
2022/03/12 04:27:57;;;;;;;6.97;2.37;;;;;;;1.92;57.45;96538.63;5057326;28;20205;-71
2022/03/12 04:30:24;;;;;;;2.43;1.83;;;;;;;1.88;58.09;96527.66;5057308;28;20212;-71
2022/03/12 04:32:51;;;;;;;4.73;2.43;;;;;;;1.83;58.44;96531.53;5056953;28;20226;-71
2022/03/12 04:35:19;;;;;;;1.30;1.03;;;;;;;1.89;57.70;96536.28;5057190;28;20259;-71
2022/03/12 04:37:45;;;;;;;3.73;1.83;;;;;;;1.88;58.13;96532.00;5056924;28;20661;-71
2022/03/12 04:40:17;;;;;;;1.37;1.27;;;;;;;2.03;57.10;96536.84;5058011;28;20212;-71
2022/03/12 04:42:45;;;;;;;2.37;2.07;;;;;;;1.99;56.71;96537.22;5055679;28;20291;-71
2022/03/12 04:45:13;;;;;;;4.30;1.93;;;;;;;2.00;58.57;96546.69;5057103;28;20678;-71
2022/03/12 04:47:42;;;;;;;1.73;1.63;;;;;;;1.97;58.23;96544.28;5058091;28;20220;-71
2022/03/12 04:50:12;;;;;;;1.50;1.40;;;;;;;1.98;56.50;96553.75;5057514;28;20303;-71
2022/03/12 04:52:38;;;;;;;7.10;2.07;;;;;;;1.93;56.88;96551.50;5052738;28;20235;-71
2022/03/12 04:55:09;;;;;;;3.17;1.50;;;;;;;2.12;57.14;96548.31;5056555;28;20243;-71
2022/03/12 04:57:36;;;;;;;0.97;0.97;;;;;;;1.97;56.91;96549.50;5057434;28;20272;-71
2022/03/12 05:00:05;;;;;;;1.67;1.23;;;;;;;1.96;57.12;96550.44;5057058;28;20301;-72
2022/03/12 05:02:32;;;;;;;3.87;1.73;;;;;;;1.87;56.95;96561.53;5055610;28;20271;-71
2022/03/12 05:04:59;;;;;;;3.30;2.27;;;;;;;1.97;56.71;96563.34;5057142;28;20225;-71
2022/03/12 05:07:26;;;;;;;2.13;1.60;;;;;;;2.00;57.12;96563.09;5056813;28;20211;-71
2022/03/12 05:09:53;;;;;;;1.87;1.70;;;;;;;2.00;58.83;96557.06;5056553;28;20276;-72
2022/03/12 05:12:24;;;;;;;5.53;2.30;;;;;;;1.81;58.87;96564.63;5056221;28;20212;-71
2022/03/12 05:14:53;;;;;;;6.13;2.37;;;;;;;1.65;58.00;96561.50;5056856;28;20301;-71
2022/03/12 05:17:22;;;;;;;1.20;1.00;;;;;;;1.70;58.50;96564.59;5056732;28;20676;-71
2022/03/12 05:19:49;;;;;;;3.73;1.73;;;;;;;1.71;58.15;96566.25;5057024;28;20243;-71
2022/03/12 05:22:16;;;;;;;2.20;1.27;;;;;;;1.64;60.60;96566.81;5056152;28;20205;-71
2022/03/12 05:24:43;;;;;;;2.27;1.93;;;;;;;1.62;59.67;96571.31;5056714;28;20200;-71
2022/03/12 05:27:14;;;;;;;1.90;1.23;;;;;;;1.60;58.40;96579.19;5057080;28;20216;-71
2022/03/12 05:29:41;;;;;;;3.40;1.93;;;;;;;1.69;57.88;96575.91;5056894;28;20281;-71
2022/03/12 05:32:13;;;;;;;4.20;2.53;;;;;;;1.82;57.20;96574.06;5056161;28;20218;-71
2022/03/12 05:34:42;;;;;;;1.17;1.00;;;;;;;1.94;56.71;96573.94;5056055;28;20216;-71
2022/03/12 05:37:09;;;;;;;2.27;1.30;;;;;;;1.84;58.13;96577.34;5056501;28;20206;-71
2022/03/12 05:39:37;;;;;;;3.40;1.10;;;;;;;1.94;57.82;96575.72;5056465;28;20234;-71
2022/03/12 05:42:05;;;;;;;4.83;2.03;;;;;;;1.81;57.27;96575.00;5056582;28;20281;-72
2022/03/12 05:44:34;;;;;;;3.70;1.57;;;;;;;1.82;58.04;96589.66;5056177;28;20225;-71
2022/03/12 05:47:00;;;;;;;1.83;1.70;;;;;;;1.77;57.21;96586.56;5056014;28;20199;-71
2022/03/12 05:49:27;;;;;;;4.60;1.10;;;;;;;1.87;56.92;96587.50;5056079;28;20211;-71
2022/03/12 05:51:55;;;;;;;1.07;1.00;;;;;;;2.01;57.39;96595.09;5055532;28;20214;-71
2022/03/12 05:54:22;;;;;;;3.40;1.77;;;;;;;2.00;56.72;96585.66;5055410;28;20324;-71
2022/03/12 05:56:48;;;;;;;6.00;2.17;;;;;;;2.00;56.38;96588.25;5055963;28;20196;-71
2022/03/12 05:59:15;;;;;;;1.50;1.40;;;;;;;1.94;57.29;96592.13;5056830;28;20208;-71
2022/03/12 06:01:41;;;;;;;3.47;1.67;;;;;;;2.01;56.43;96595.09;5056971;28;20671;-71
2022/03/12 06:04:08;;;;;;;4.33;2.30;;;;;;;2.08;56.17;96599.69;5055816;28;20869;-71
2022/03/12 06:06:35;;;;;;;4.47;2.37;;;;;;;2.16;55.56;96601.72;5056185;28;20205;-71
2022/03/12 06:09:05;;;;;;;1.93;1.13;;;;;;;2.13;56.42;96604.56;5056443;28;20213;-71
2022/03/12 06:11:32;;;;;;;2.83;1.00;;;;;;;2.18;56.28;96602.44;5056663;28;20221;-71
2022/03/12 06:14:00;;;;;;;1.93;1.50;;;;;;;2.22;56.11;96601.25;5056957;28;20236;-71
2022/03/12 06:16:27;;;;;;;5.57;2.23;;;;;;;2.38;56.04;96599.97;5059865;28;20637;-71
2022/03/12 06:18:54;;;;;;;1.43;1.33;;;;;;;2.40;54.64;96602.44;5060098;28;20213;-72
2022/03/12 06:21:21;;;;;;;10.27;3.00;;;;;;;2.51;54.50;96603.25;5059709;28;20210;-71
2022/03/12 06:23:48;;;;;;;3.33;1.97;;;;;;;2.56;54.25;96608.94;5059248;28;20234;-71
2022/03/12 06:26:17;;;;;;;3.37;3.00;;;;;;;2.65;56.54;96608.22;5059916;28;20214;-71
2022/03/12 06:28:45;;;;;;;1.70;1.20;;;;;;;2.65;57.53;96606.41;5060071;28;20203;-71
2022/03/12 06:31:12;;;;;;;3.60;2.10;;;;;;;2.70;55.75;96617.28;5059781;28;20209;-71
2022/03/12 06:33:40;;;;;;;11.00;3.07;;;;;;;2.79;56.76;96608.78;5057996;28;20716;-71
2022/03/12 06:36:07;;;;;;;1.43;1.33;;;;;;;2.70;57.51;96612.09;5059697;28;20223;-71
2022/03/12 06:38:37;;;;;;;1.83;1.27;;;;;;;2.74;57.24;96626.50;5059123;28;20211;-72
2022/03/12 06:41:04;;;;;;;6.27;1.60;;;;;;;2.86;55.68;96625.53;5059723;28;21175;-72
2022/03/12 06:43:33;;;;;;;3.80;2.70;;;;;;;3.01;55.11;96621.72;5058478;28;20220;-72
2022/03/12 06:46:01;;;;;;;5.23;2.03;;;;;;;2.91;54.65;96625.19;5059235;28;20200;-72
2022/03/12 06:48:29;;;;;;;3.60;1.73;;;;;;;2.91;53.73;96627.78;5059161;28;20204;-72
2022/03/12 06:50:56;;;;;;;6.33;1.90;;;;;;;3.01;53.95;96632.13;5056490;28;20305;-72
2022/03/12 06:53:22;;;;;;;3.03;1.80;;;;;;;2.92;53.21;96637.25;5058233;28;20235;-72
2022/03/12 06:55:49;;;;;;;6.67;2.37;;;;;;;2.85;52.42;96641.28;5059321;28;20232;-72
2022/03/12 06:58:18;;;;;;;3.17;1.57;;;;;;;3.01;51.93;96637.34;5059149;28;20207;-72
2022/03/12 07:00:46;;;;;;;3.23;1.60;;;;;;;3.16;52.92;96638.72;5058959;28;20204;-72
2022/03/12 07:03:12;;;;;;;1.97;1.63;;;;;;;3.10;51.32;96641.81;5058268;28;20233;-72
2022/03/12 07:05:38;;;;;;;9.83;3.33;;;;;;;3.01;52.77;96638.16;5058966;28;20209;-72
2022/03/12 07:08:05;;;;;;;8.07;2.40;;;;;;;3.02;51.93;96636.41;5059691;28;20227;-72
2022/03/12 07:10:32;;;;;;;3.73;2.20;;;;;;;2.57;54.40;96647.81;5058643;28;20209;-72
2022/03/12 07:12:58;;;;;;;4.73;2.10;;;;;;;2.83;53.78;96649.22;5058883;28;20229;-72
2022/03/12 07:15:29;;;;;;;2.57;1.90;;;;;;;2.94;53.59;96646.59;5059369;28;20232;-72
2022/03/12 07:17:56;;;;;;;1.60;1.37;;;;;;;3.17;51.90;96642.97;5059740;28;20659;-72
2022/03/12 07:20:23;;;;;;;3.70;2.27;;;;;;;3.15;51.11;96644.88;5057076;28;20660;-72
2022/03/12 07:22:50;;;;;;;3.10;2.17;;;;;;;3.14;51.19;96648.44;5057902;28;20631;-72
2022/03/12 07:25:17;;;;;;;2.10;1.90;;;;;;;2.92;51.01;96651.09;5057838;28;20563;-72
2022/03/12 07:27:44;;;;;;;4.07;2.30;;;;;;;3.14;49.67;96643.22;5058163;28;20283;-72
2022/03/12 07:30:14;;;;;;;8.30;2.33;;;;;;;3.40;50.46;96641.94;5058781;28;20207;-72
2022/03/12 07:32:42;;;;;;;6.30;2.57;;;;;;;3.30;48.92;96644.47;5058112;28;20306;-72
2022/03/12 07:35:12;;;;;;;5.63;2.47;;;;;;;3.69;49.82;96636.88;5058035;28;20682;-71
2022/03/12 07:37:38;;;;;;;4.40;2.00;;;;;;;3.37;50.33;96640.41;5057697;28;20208;-71
2022/03/12 07:40:06;;;;;;;8.20;2.13;;;;;;;3.58;49.91;96646.50;5058374;28;20224;-71
2022/03/12 07:42:33;;;;;;;28.13;2.77;;;;;;;3.65;49.68;96650.25;5057689;28;20224;-70
2022/03/12 07:44:59;;;;;;;2.53;1.63;;;;;;;3.84;48.52;96653.00;5058555;28;20214;-70
2022/03/12 07:47:26;;;;;;;5.93;2.77;;;;;;;3.77;48.92;96664.91;5058227;28;20740;-71
2022/03/12 07:49:52;;;;;;;4.57;1.43;;;;;;;3.93;48.16;96650.47;5060532;28;20665;-71
2022/03/12 07:52:20;;;;;;;6.53;3.43;;;;;;;4.36;47.95;96653.75;5069445;28;20207;-71
2022/03/12 07:54:47;;;;;;;5.43;2.27;;;;;;;4.34;48.02;96656.50;5071042;28;20234;-71
2022/03/12 07:57:14;;;;;;;3.40;1.87;;;;;;;4.24;47.04;96657.41;5071014;28;20208;-71
2022/03/12 07:59:40;;;;;;;1.77;1.33;;;;;;;4.51;46.78;96653.28;5070635;28;20201;-71
2022/03/12 08:02:07;;;;;;;3.77;1.97;;;;;;;4.45;46.49;96658.19;5070686;28;20211;-71
2022/03/12 08:04:35;;;;;;;2.63;1.47;;;;;;;4.43;46.33;96654.88;5069965;28;20247;-71
2022/03/12 08:07:02;;;;;;;6.80;3.00;;;;;;;4.33;48.01;96654.03;5069281;28;20219;-71
2022/03/12 08:09:30;;;;;;;4.23;2.60;;;;;;;4.47;47.22;96643.25;5069738;28;20209;-71
2022/03/12 08:11:58;;;;;;;10.13;2.67;;;;;;;4.49;45.97;96649.16;5068857;28;20212;-71
2022/03/12 08:14:26;;;;;;;2.83;1.67;;;;;;;4.75;44.89;96656.41;5069702;28;20906;-71
2022/03/12 08:16:52;;;;;;;7.27;2.30;;;;;;;4.76;44.80;96652.00;5069468;28;20660;-71
2022/03/12 08:19:20;;;;;;;5.00;2.47;;;;;;;4.28;45.39;96648.38;5069047;28;20240;-71
2022/03/12 08:21:47;;;;;;;3.17;2.23;;;;;;;4.75;44.89;96650.34;5066833;28;20204;-71
2022/03/12 08:24:15;;;;;;;7.20;2.77;;;;;;;5.06;44.48;96643.16;5068774;28;20311;-71
2022/03/12 08:26:44;;;;;;;4.23;1.87;;;;;;;4.94;45.68;96641.63;5068668;28;20254;-71
2022/03/12 08:29:11;;;;;;;3.23;1.83;;;;;;;4.81;45.61;96640.19;5068690;28;20208;-71
2022/03/12 08:31:38;;;;;;;7.40;3.10;;;;;;;4.99;45.47;96643.81;5067957;28;20582;-71
2022/03/12 08:34:05;;;;;;;3.70;2.23;;;;;;;5.10;45.15;96644.53;5065742;28;20311;-71
2022/03/12 08:36:31;;;;;;;10.07;3.23;;;;;;;5.03;45.70;96650.47;5066249;28;20621;-71
2022/03/12 08:38:58;;;;;;;5.10;2.73;;;;;;;5.18;45.40;96655.19;5066014;28;20203;-71
2022/03/12 08:41:25;;;;;;;6.50;1.67;;;;;;;5.10;47.06;96654.19;5065561;28;20685;-71
2022/03/12 08:43:53;;;;;;;4.70;2.17;;;;;;;5.33;46.97;96643.34;5062893;28;20303;-71
2022/03/12 08:46:20;;;;;;;10.00;2.80;;;;;;;5.45;44.97;96650.94;5065345;28;20338;-71
2022/03/12 08:48:46;;;;;;;5.57;2.53;;;;;;;5.56;44.89;96648.22;5065261;28;20227;-71
2022/03/12 08:51:13;;;;;;;4.40;2.23;;;;;;;5.80;45.24;96642.59;5064123;28;20215;-69
2022/03/12 08:53:40;;;;;;;8.93;2.20;;;;;;;5.97;43.75;96639.28;5064361;28;20216;-69
2022/03/12 08:56:08;;;;;;;11.33;2.33;;;;;;;5.79;45.40;96638.31;5065702;28;20236;-69
2022/03/12 08:58:36;;;;;;;6.33;2.23;;;;;;;5.93;45.37;96643.13;5065751;28;20231;-71
2022/03/12 09:01:08;;;;;;;4.73;2.50;;;;;;;6.00;44.94;96634.59;5065520;28;20201;-71
2022/03/12 09:03:35;;;;;;;4.93;2.23;;;;;;;6.04;44.31;96639.38;5065320;28;20236;-71
2022/03/12 09:06:03;;;;;;;4.33;2.20;;;;;;;5.92;45.42;96638.84;5066593;28;20752;-71
2022/03/12 09:08:30;;;;;;;15.30;2.77;;;;;;;5.73;45.60;96636.25;5065936;28;20680;-71
2022/03/12 09:10:57;;;;;;;5.97;2.87;;;;;;;5.87;46.65;96633.22;5065509;28;20700;-71
2022/03/12 09:13:23;;;;;;;5.23;2.60;;;;;;;6.30;45.48;96630.00;5066083;28;20224;-71
2022/03/12 09:15:51;;;;;;;5.77;2.40;;;;;;;6.49;45.54;96631.72;5065151;28;20220;-71
2022/03/12 09:18:20;;;;;;;5.23;2.33;;;;;;;6.35;46.11;96629.56;5067424;28;20216;-71
2022/03/12 09:20:47;;;;;;;6.77;2.40;;;;;;;6.07;44.82;96625.22;5066080;28;20201;-71
2022/03/12 09:23:14;;;;;;;6.27;2.83;;;;;;;6.00;46.20;96634.59;5065504;28;20224;-71
2022/03/12 09:25:42;;;;;;;4.93;2.67;;;;;;;6.45;44.78;96628.56;5066047;28;20576;-71
2022/03/12 09:28:08;;;;;;;6.30;3.50;;;;;;;6.92;43.36;96632.78;5065577;28;20215;-72
2022/03/12 09:30:35;;;;;;;5.37;2.67;;;;;;;6.71;43.39;96637.44;5065979;28;20201;-71
2022/03/12 09:33:02;;;;;;;5.47;2.83;;;;;;;6.94;44.43;96633.47;5063326;28;20232;-71
2022/03/12 09:35:30;;;;;;;6.87;2.50;;;;;;;7.11;43.46;96620.41;5066066;28;20740;-71
2022/03/12 09:37:57;;;;;;;6.43;2.93;;;;;;;6.68;45.15;96622.00;5066372;28;20207;-71
2022/03/12 09:40:24;;;;;;;4.33;2.87;;;;;;;7.10;44.46;96623.19;5066877;28;20226;-71
2022/03/12 09:42:50;;;;;;;5.47;2.37;;;;;;;7.55;43.58;96619.59;5066171;28;20247;-71
2022/03/12 09:45:17;;;;;;;6.83;4.53;;;;;;;7.95;43.67;96610.25;5065730;28;20558;-71
2022/03/12 09:47:44;;;;;;;5.20;2.30;;;;;;;7.67;42.84;96619.19;5064647;28;20971;-71
2022/03/12 09:50:11;;;;;;;9.53;3.80;;;;;;;7.72;42.09;96619.56;5069503;28;20231;-71
2022/03/12 09:52:40;;;;;;;9.13;3.20;;;;;;;7.97;41.48;96611.75;5066970;28;20257;-69
2022/03/12 09:55:07;;;;;;;6.17;2.37;;;;;;;7.89;41.30;96618.72;5068940;28;20243;-71
2022/03/12 09:57:34;;;;;;;5.97;3.00;;;;;;;7.93;42.41;96615.66;5069000;28;20205;-71
2022/03/12 10:00:01;;;;;;;7.47;2.47;;;;;;;7.85;41.39;96608.69;5069255;28;20211;-69
2022/03/12 10:02:27;;;;;;;8.17;3.70;;;;;;;7.82;41.11;96612.44;5069285;28;20211;-69
2022/03/12 10:04:54;;;;;;;5.43;3.47;;;;;;;8.06;40.25;96610.03;5068716;28;20204;-69
2022/03/12 10:07:21;;;;;;;7.70;3.57;;;;;;;8.16;40.98;96616.84;5069117;28;20788;-69
2022/03/12 10:09:49;;;;;;;6.37;3.03;;;;;;;8.41;40.61;96621.28;5068923;28;20713;-71
2022/03/12 10:12:19;;;;;;;10.83;3.23;;;;;;;8.55;41.40;96623.34;5069122;28;20235;-69
2022/03/12 10:14:48;;;;;;;12.30;3.53;;;;;;;8.07;41.19;96622.16;5064740;28;20232;-69
2022/03/12 10:17:14;;;;;;;11.10;4.17;;;;;;;8.63;39.66;96626.00;5068138;28;20255;-69
2022/03/12 10:19:44;;;;;;;7.27;2.40;;;;;;;8.18;40.95;96619.31;5067363;28;20220;-70
2022/03/12 10:22:10;;;;;;;7.10;3.47;;;;;;;8.60;41.52;96615.81;5068738;28;20295;-69
2022/03/12 10:24:37;;;;;;;8.40;2.83;;;;;;;8.85;40.92;96610.53;5070583;28;20227;-69
2022/03/12 10:27:06;;;;;;;7.77;3.67;;;;;;;9.23;39.77;96607.41;5068259;28;20676;-69
2022/03/12 10:29:33;;;;;;;8.63;3.47;;;;;;;9.10;40.56;96607.03;5068429;28;20215;-69
2022/03/12 10:32:00;;;;;;;10.47;3.20;;;;;;;9.24;39.83;96596.72;5067184;28;20254;-69
2022/03/12 10:34:27;;;;;;;5.87;3.53;;;;;;;9.38;41.00;96593.47;5067494;28;20228;-69
2022/03/12 10:36:57;;;;;;;8.90;3.90;;;;;;;9.33;41.36;96589.66;5067348;28;20239;-69
2022/03/12 10:39:43;;;;;;;10.33;3.40;;;;;;;9.82;41.24;96584.31;5066244;28;20215;-69
2022/03/12 10:42:10;;;;;;;8.20;3.50;;;;;;;9.56;40.67;96586.28;5064692;28;20208;-69
2022/03/12 10:44:39;;;;;;;15.60;3.57;;;;;;;9.66;40.89;96583.47;5067013;28;20231;-69
2022/03/12 10:47:15;;;;;;;6.27;3.60;;;;;;;9.89;40.07;96577.41;5068412;28;20299;-69
2022/03/12 10:49:56;;;;;;;7.23;3.53;;;;;;;10.07;40.46;96576.28;5066883;28;20208;-69
2022/03/12 10:52:23;;;;;;;9.63;4.37;;;;;;;9.81;40.22;96565.09;5066536;28;20217;-69
2022/03/12 10:54:50;;;;;;;10.70;4.40;;;;;;;9.73;39.75;96564.25;5068377;28;20205;-69
2022/03/12 10:57:19;;;;;;;8.97;3.97;;;;;;;10.09;41.58;96570.84;5066764;28;20220;-69
2022/03/12 10:59:46;;;;;;;12.40;4.10;;;;;;;10.08;40.23;96569.19;5064453;28;20223;-69
2022/03/12 11:02:15;;;;;;;9.23;3.77;;;;;;;10.15;39.03;96563.09;5066876;28;20212;-69
2022/03/12 11:04:41;;;;;;;12.10;4.10;;;;;;;9.98;40.90;96561.50;5061478;28;20231;-72
2022/03/12 11:07:25;;;;;;;10.53;4.07;;;;;;;10.23;40.43;96560.47;5060972;28;20204;-70
2022/03/12 11:09:52;;;;;;;22.73;4.80;;;;;;;10.32;40.07;96556.81;5061784;28;20289;-69
2022/03/12 11:12:30;;;;;;;12.90;4.47;;;;;;;10.29;39.26;96549.25;5064217;28;20573;-70
2022/03/12 11:15:05;;;;;;;9.07;4.07;;;;;;;10.73;39.47;96555.72;5063021;28;20208;-70
2022/03/12 11:17:42;;;;;;;9.73;4.23;;;;;;;10.81;38.12;96548.63;5065333;28;20235;-69
2022/03/12 11:20:13;;;;;;;8.63;3.70;;;;;;;10.86;39.22;96548.09;5064935;28;20212;-70
2022/03/12 11:22:40;;;;;;;13.47;4.67;;;;;;;10.25;39.18;96553.22;5066353;28;20303;-70
2022/03/12 11:25:11;;;;;;;10.47;3.73;;;;;;;10.34;40.19;96549.59;5066081;28;20568;-70
2022/03/12 11:27:39;;;;;;;8.60;4.13;;;;;;;10.84;40.02;96543.00;5063507;28;20213;-70
2022/03/12 11:30:09;;;;;;;12.33;4.43;;;;;;;11.30;39.41;96537.66;5064170;28;20205;-70
2022/03/12 11:32:45;;;;;;;9.53;3.83;;;;;;;10.95;38.97;96535.53;5065093;28;20228;-70
2022/03/12 11:35:17;;;;;;;10.17;4.03;;;;;;;10.81;39.06;96532.00;5063353;28;20207;-70
2022/03/12 11:37:44;;;;;;;11.13;3.83;;;;;;;10.93;39.21;96529.63;5064240;28;20660;-70
2022/03/12 11:40:18;;;;;;;11.67;4.40;;;;;;;11.46;39.95;96519.09;5065148;28;20247;-70
2022/03/12 11:42:48;;;;;;;8.07;4.33;;;;;;;11.19;39.03;96524.88;5062584;28;20317;-70
2022/03/12 11:45:15;;;;;;;9.57;4.13;;;;;;;11.38;39.73;96513.88;5065149;28;20281;-70